sensor_id;sensor_type;location;lat;lon;timestamp;temperature;humidity
55777;DHT22;54079;44.540;18.784;2023-06-14T00:02:09;16.40;91.70
55777;DHT22;54079;44.540;18.784;2023-06-14T00:04:35;16.50;91.50
55777;DHT22;54079;44.540;18.784;2023-06-14T00:07:02;16.50;91.40
55777;DHT22;54079;44.540;18.784;2023-06-14T00:09:28;16.50;91.90
55777;DHT22;54079;44.540;18.784;2023-06-14T00:11:54;16.30;91.80
55777;DHT22;54079;44.540;18.784;2023-06-14T00:14:20;16.20;92.60
55777;DHT22;54079;44.540;18.784;2023-06-14T00:16:45;16.10;92.40
55777;DHT22;54079;44.540;18.784;2023-06-14T00:19:11;16.20;91.90
55777;DHT22;54079;44.540;18.784;2023-06-14T00:21:38;16.20;91.60
55777;DHT22;54079;44.540;18.784;2023-06-14T00:24:04;16.30;92.40
55777;DHT22;54079;44.540;18.784;2023-06-14T00:26:30;16.30;91.70
55777;DHT22;54079;44.540;18.784;2023-06-14T00:28:56;16.30;91.80
55777;DHT22;54079;44.540;18.784;2023-06-14T00:31:23;16.30;92.40
55777;DHT22;54079;44.540;18.784;2023-06-14T00:33:49;16.40;93.20
55777;DHT22;54079;44.540;18.784;2023-06-14T00:36:14;16.30;92.60
55777;DHT22;54079;44.540;18.784;2023-06-14T00:38:40;16.40;92.20
55777;DHT22;54079;44.540;18.784;2023-06-14T00:41:06;16.50;91.90
55777;DHT22;54079;44.540;18.784;2023-06-14T00:43:32;16.50;92.60
55777;DHT22;54079;44.540;18.784;2023-06-14T00:46:00;16.40;92.50
55777;DHT22;54079;44.540;18.784;2023-06-14T00:48:27;16.30;92.40
55777;DHT22;54079;44.540;18.784;2023-06-14T00:50:53;16.30;92.40
55777;DHT22;54079;44.540;18.784;2023-06-14T00:53:20;16.10;92.00
55777;DHT22;54079;44.540;18.784;2023-06-14T00:55:48;16.10;91.60
55777;DHT22;54079;44.540;18.784;2023-06-14T00:58:15;16.20;91.90
55777;DHT22;54079;44.540;18.784;2023-06-14T01:00:42;16.20;91.80
55777;DHT22;54079;44.540;18.784;2023-06-14T01:03:08;16.10;92.20
55777;DHT22;54079;44.540;18.784;2023-06-14T01:05:38;16.20;92.00
55777;DHT22;54079;44.540;18.784;2023-06-14T01:08:28;16.10;92.50
55777;DHT22;54079;44.540;18.784;2023-06-14T01:11:05;16.10;93.40
55777;DHT22;54079;44.540;18.784;2023-06-14T01:13:34;16.10;93.30
55777;DHT22;54079;44.540;18.784;2023-06-14T01:16:02;16.00;93.80
55777;DHT22;54079;44.540;18.784;2023-06-14T01:18:28;16.00;92.80
55777;DHT22;54079;44.540;18.784;2023-06-14T01:20:55;16.00;93.50
55777;DHT22;54079;44.540;18.784;2023-06-14T01:23:22;15.90;93.40
55777;DHT22;54079;44.540;18.784;2023-06-14T01:25:49;16.00;93.80
55777;DHT22;54079;44.540;18.784;2023-06-14T01:28:20;16.10;94.10
55777;DHT22;54079;44.540;18.784;2023-06-14T01:30:51;16.20;93.90
55777;DHT22;54079;44.540;18.784;2023-06-14T01:33:22;16.30;93.50
55777;DHT22;54079;44.540;18.784;2023-06-14T01:35:51;16.40;93.40
55777;DHT22;54079;44.540;18.784;2023-06-14T01:38:24;16.40;92.90
55777;DHT22;54079;44.540;18.784;2023-06-14T01:40:53;16.50;93.10
55777;DHT22;54079;44.540;18.784;2023-06-14T01:43:20;16.50;93.00
55777;DHT22;54079;44.540;18.784;2023-06-14T01:45:47;16.70;94.10
55777;DHT22;54079;44.540;18.784;2023-06-14T01:48:17;16.80;93.20
55777;DHT22;54079;44.540;18.784;2023-06-14T01:50:43;16.70;93.30
55777;DHT22;54079;44.540;18.784;2023-06-14T01:53:10;16.90;92.70
55777;DHT22;54079;44.540;18.784;2023-06-14T01:55:36;17.00;93.10
55777;DHT22;54079;44.540;18.784;2023-06-14T01:58:09;17.00;93.20
55777;DHT22;54079;44.540;18.784;2023-06-14T02:00:35;16.90;92.90
55777;DHT22;54079;44.540;18.784;2023-06-14T02:03:02;17.00;92.30
55777;DHT22;54079;44.540;18.784;2023-06-14T02:05:30;17.10;92.50
55777;DHT22;54079;44.540;18.784;2023-06-14T02:07:56;17.00;93.00
55777;DHT22;54079;44.540;18.784;2023-06-14T02:10:22;16.90;93.00
55777;DHT22;54079;44.540;18.784;2023-06-14T02:12:48;16.80;93.80
55777;DHT22;54079;44.540;18.784;2023-06-14T02:15:14;16.80;93.50
55777;DHT22;54079;44.540;18.784;2023-06-14T02:17:46;16.80;93.30
55777;DHT22;54079;44.540;18.784;2023-06-14T02:20:13;16.90;93.30
55777;DHT22;54079;44.540;18.784;2023-06-14T02:22:39;16.80;92.90
55777;DHT22;54079;44.540;18.784;2023-06-14T02:25:05;16.90;92.90
55777;DHT22;54079;44.540;18.784;2023-06-14T02:27:32;17.10;93.00
55777;DHT22;54079;44.540;18.784;2023-06-14T02:29:58;17.10;92.60
55777;DHT22;54079;44.540;18.784;2023-06-14T02:32:24;17.20;93.30
55777;DHT22;54079;44.540;18.784;2023-06-14T02:34:50;17.20;92.90
55777;DHT22;54079;44.540;18.784;2023-06-14T02:37:16;17.10;92.80
55777;DHT22;54079;44.540;18.784;2023-06-14T02:39:42;17.10;92.30
55777;DHT22;54079;44.540;18.784;2023-06-14T02:42:08;17.20;93.70
55777;DHT22;54079;44.540;18.784;2023-06-14T02:44:34;17.20;91.70
55777;DHT22;54079;44.540;18.784;2023-06-14T02:47:00;17.10;91.50
55777;DHT22;54079;44.540;18.784;2023-06-14T02:49:26;17.20;91.10
55777;DHT22;54079;44.540;18.784;2023-06-14T02:51:52;17.20;91.10
55777;DHT22;54079;44.540;18.784;2023-06-14T02:54:18;17.30;91.50
55777;DHT22;54079;44.540;18.784;2023-06-14T02:56:44;17.40;92.10
55777;DHT22;54079;44.540;18.784;2023-06-14T02:59:10;17.40;91.80
55777;DHT22;54079;44.540;18.784;2023-06-14T03:01:36;17.40;91.90
55777;DHT22;54079;44.540;18.784;2023-06-14T03:04:04;17.40;91.60
55777;DHT22;54079;44.540;18.784;2023-06-14T03:06:30;17.30;90.80
55777;DHT22;54079;44.540;18.784;2023-06-14T03:09:00;17.30;91.10
55777;DHT22;54079;44.540;18.784;2023-06-14T03:11:30;17.40;92.10
55777;DHT22;54079;44.540;18.784;2023-06-14T03:13:56;17.30;92.20
55777;DHT22;54079;44.540;18.784;2023-06-14T03:16:22;17.30;92.30
55777;DHT22;54079;44.540;18.784;2023-06-14T03:18:51;17.00;92.00
55777;DHT22;54079;44.540;18.784;2023-06-14T03:21:17;16.70;92.60
55777;DHT22;54079;44.540;18.784;2023-06-14T03:23:44;16.70;92.70
55777;DHT22;54079;44.540;18.784;2023-06-14T03:26:10;17.00;92.80
55777;DHT22;54079;44.540;18.784;2023-06-14T03:28:44;17.20;92.40
55777;DHT22;54079;44.540;18.784;2023-06-14T03:31:11;17.20;92.30
55777;DHT22;54079;44.540;18.784;2023-06-14T03:33:37;16.90;92.50
55777;DHT22;54079;44.540;18.784;2023-06-14T03:36:03;17.10;93.00
55777;DHT22;54079;44.540;18.784;2023-06-14T03:38:29;17.20;92.70
55777;DHT22;54079;44.540;18.784;2023-06-14T03:40:55;17.30;92.50
55777;DHT22;54079;44.540;18.784;2023-06-14T03:43:21;17.40;92.40
55777;DHT22;54079;44.540;18.784;2023-06-14T03:45:47;17.40;92.30
55777;DHT22;54079;44.540;18.784;2023-06-14T03:48:14;17.50;91.70
55777;DHT22;54079;44.540;18.784;2023-06-14T03:50:40;17.60;92.40
55777;DHT22;54079;44.540;18.784;2023-06-14T03:53:08;17.80;92.30
55777;DHT22;54079;44.540;18.784;2023-06-14T03:55:34;17.80;92.40
55777;DHT22;54079;44.540;18.784;2023-06-14T03:58:00;17.70;92.70
55777;DHT22;54079;44.540;18.784;2023-06-14T04:00:27;17.70;91.90
55777;DHT22;54079;44.540;18.784;2023-06-14T04:02:53;17.90;92.10
55777;DHT22;54079;44.540;18.784;2023-06-14T04:05:20;18.20;92.60
55777;DHT22;54079;44.540;18.784;2023-06-14T04:07:46;18.30;92.40
55777;DHT22;54079;44.540;18.784;2023-06-14T04:10:15;18.70;91.50
55777;DHT22;54079;44.540;18.784;2023-06-14T04:12:42;18.70;90.70
55777;DHT22;54079;44.540;18.784;2023-06-14T04:15:09;19.00;90.90
55777;DHT22;54079;44.540;18.784;2023-06-14T04:17:36;19.20;91.60
55777;DHT22;54079;44.540;18.784;2023-06-14T04:20:02;19.30;90.40
55777;DHT22;54079;44.540;18.784;2023-06-14T04:22:31;19.40;90.80
55777;DHT22;54079;44.540;18.784;2023-06-14T04:24:57;19.50;90.80
55777;DHT22;54079;44.540;18.784;2023-06-14T04:27:23;19.80;90.70
55777;DHT22;54079;44.540;18.784;2023-06-14T04:29:54;20.00;90.40
55777;DHT22;54079;44.540;18.784;2023-06-14T04:32:25;20.20;90.50
55777;DHT22;54079;44.540;18.784;2023-06-14T04:34:55;20.30;90.40
55777;DHT22;54079;44.540;18.784;2023-06-14T04:37:24;20.50;90.00
55777;DHT22;54079;44.540;18.784;2023-06-14T04:39:54;20.60;87.10
55777;DHT22;54079;44.540;18.784;2023-06-14T04:42:22;20.80;87.40
55777;DHT22;54079;44.540;18.784;2023-06-14T04:44:51;21.10;87.80
55777;DHT22;54079;44.540;18.784;2023-06-14T04:47:18;21.30;88.80
55777;DHT22;54079;44.540;18.784;2023-06-14T04:49:46;21.30;89.00
55777;DHT22;54079;44.540;18.784;2023-06-14T04:52:15;21.50;88.40
55777;DHT22;54079;44.540;18.784;2023-06-14T04:54:44;21.30;86.90
55777;DHT22;54079;44.540;18.784;2023-06-14T04:57:11;22.30;86.30
55777;DHT22;54079;44.540;18.784;2023-06-14T04:59:44;21.90;86.20
55777;DHT22;54079;44.540;18.784;2023-06-14T05:02:11;21.60;87.00
55777;DHT22;54079;44.540;18.784;2023-06-14T05:04:37;21.50;86.00
55777;DHT22;54079;44.540;18.784;2023-06-14T05:07:14;21.70;87.10
55777;DHT22;54079;44.540;18.784;2023-06-14T05:09:46;21.90;88.10
55777;DHT22;54079;44.540;18.784;2023-06-14T05:12:20;21.90;89.00
55777;DHT22;54079;44.540;18.784;2023-06-14T05:14:52;21.90;88.10
55777;DHT22;54079;44.540;18.784;2023-06-14T05:17:18;22.00;86.50
55777;DHT22;54079;44.540;18.784;2023-06-14T05:19:44;22.20;86.50
55777;DHT22;54079;44.540;18.784;2023-06-14T05:22:10;22.40;84.70
55777;DHT22;54079;44.540;18.784;2023-06-14T05:24:36;22.20;86.00
55777;DHT22;54079;44.540;18.784;2023-06-14T05:27:02;22.10;86.00
55777;DHT22;54079;44.540;18.784;2023-06-14T05:29:28;22.00;85.50
55777;DHT22;54079;44.540;18.784;2023-06-14T05:31:54;22.10;87.20
55777;DHT22;54079;44.540;18.784;2023-06-14T05:34:20;22.10;82.60
55777;DHT22;54079;44.540;18.784;2023-06-14T05:36:46;22.20;86.30
55777;DHT22;54079;44.540;18.784;2023-06-14T05:39:12;22.00;85.20
55777;DHT22;54079;44.540;18.784;2023-06-14T05:41:39;22.10;85.20
55777;DHT22;54079;44.540;18.784;2023-06-14T05:44:05;22.00;86.60
55777;DHT22;54079;44.540;18.784;2023-06-14T05:46:31;22.00;89.10
55777;DHT22;54079;44.540;18.784;2023-06-14T05:48:57;22.00;88.90
55777;DHT22;54079;44.540;18.784;2023-06-14T05:51:23;22.00;88.00
55777;DHT22;54079;44.540;18.784;2023-06-14T05:53:50;22.20;87.30
55777;DHT22;54079;44.540;18.784;2023-06-14T05:56:17;21.90;88.70
55777;DHT22;54079;44.540;18.784;2023-06-14T05:58:47;21.70;90.50
55777;DHT22;54079;44.540;18.784;2023-06-14T06:01:13;21.70;90.80
55777;DHT22;54079;44.540;18.784;2023-06-14T06:03:39;21.60;90.70
55777;DHT22;54079;44.540;18.784;2023-06-14T06:06:05;21.70;90.90
55777;DHT22;54079;44.540;18.784;2023-06-14T06:08:33;22.10;90.20
55777;DHT22;54079;44.540;18.784;2023-06-14T06:10:59;22.40;90.10
55777;DHT22;54079;44.540;18.784;2023-06-14T06:13:26;22.50;89.00
55777;DHT22;54079;44.540;18.784;2023-06-14T06:15:52;22.60;88.50
55777;DHT22;54079;44.540;18.784;2023-06-14T06:18:17;22.70;89.00
55777;DHT22;54079;44.540;18.784;2023-06-14T06:20:43;22.80;89.20
55777;DHT22;54079;44.540;18.784;2023-06-14T06:23:10;22.60;89.10
55777;DHT22;54079;44.540;18.784;2023-06-14T06:25:36;22.50;89.20
55777;DHT22;54079;44.540;18.784;2023-06-14T06:28:02;22.70;89.60
55777;DHT22;54079;44.540;18.784;2023-06-14T06:30:28;22.80;89.80
55777;DHT22;54079;44.540;18.784;2023-06-14T06:32:54;22.90;89.20
55777;DHT22;54079;44.540;18.784;2023-06-14T06:35:21;22.80;88.70
55777;DHT22;54079;44.540;18.784;2023-06-14T06:37:47;22.90;88.20
55777;DHT22;54079;44.540;18.784;2023-06-14T06:40:13;22.90;87.90
55777;DHT22;54079;44.540;18.784;2023-06-14T06:42:39;22.90;88.40
55777;DHT22;54079;44.540;18.784;2023-06-14T06:45:05;22.90;88.90
55777;DHT22;54079;44.540;18.784;2023-06-14T06:47:31;23.00;89.30
55777;DHT22;54079;44.540;18.784;2023-06-14T06:49:57;23.00;89.00
55777;DHT22;54079;44.540;18.784;2023-06-14T06:52:23;22.90;88.60
55777;DHT22;54079;44.540;18.784;2023-06-14T06:54:49;23.00;89.50
55777;DHT22;54079;44.540;18.784;2023-06-14T06:57:16;22.90;89.20
55777;DHT22;54079;44.540;18.784;2023-06-14T06:59:42;22.80;88.90
55777;DHT22;54079;44.540;18.784;2023-06-14T07:02:08;22.90;89.40
55777;DHT22;54079;44.540;18.784;2023-06-14T07:04:34;23.00;88.70
55777;DHT22;54079;44.540;18.784;2023-06-14T07:07:00;23.10;88.70
55777;DHT22;54079;44.540;18.784;2023-06-14T07:09:26;23.10;88.90
55777;DHT22;54079;44.540;18.784;2023-06-14T07:11:52;23.10;89.30
55777;DHT22;54079;44.540;18.784;2023-06-14T07:14:18;23.20;88.90
55777;DHT22;54079;44.540;18.784;2023-06-14T07:16:43;23.30;89.30
55777;DHT22;54079;44.540;18.784;2023-06-14T07:19:10;23.30;89.90
55777;DHT22;54079;44.540;18.784;2023-06-14T07:21:36;23.50;89.30
55777;DHT22;54079;44.540;18.784;2023-06-14T07:24:05;23.60;88.80
55777;DHT22;54079;44.540;18.784;2023-06-14T07:26:32;23.30;89.60
55777;DHT22;54079;44.540;18.784;2023-06-14T07:28:58;23.50;89.40
55777;DHT22;54079;44.540;18.784;2023-06-14T07:31:24;23.60;88.20
55777;DHT22;54079;44.540;18.784;2023-06-14T07:33:50;23.50;88.30
55777;DHT22;54079;44.540;18.784;2023-06-14T07:36:16;23.40;88.40
55777;DHT22;54079;44.540;18.784;2023-06-14T07:38:43;23.10;88.50
55777;DHT22;54079;44.540;18.784;2023-06-14T07:41:09;23.10;87.70
55777;DHT22;54079;44.540;18.784;2023-06-14T07:43:35;23.00;87.30
55777;DHT22;54079;44.540;18.784;2023-06-14T07:46:01;23.00;88.10
55777;DHT22;54079;44.540;18.784;2023-06-14T07:48:28;23.10;87.30
55777;DHT22;54079;44.540;18.784;2023-06-14T07:50:54;23.20;85.80
55777;DHT22;54079;44.540;18.784;2023-06-14T07:53:20;23.10;86.70
55777;DHT22;54079;44.540;18.784;2023-06-14T07:55:46;23.30;86.40
55777;DHT22;54079;44.540;18.784;2023-06-14T07:58:14;23.30;85.90
55777;DHT22;54079;44.540;18.784;2023-06-14T08:00:40;23.30;86.10
55777;DHT22;54079;44.540;18.784;2023-06-14T08:03:06;23.20;85.70
55777;DHT22;54079;44.540;18.784;2023-06-14T08:05:33;23.10;86.50
55777;DHT22;54079;44.540;18.784;2023-06-14T08:07:59;23.30;86.00
55777;DHT22;54079;44.540;18.784;2023-06-14T08:10:25;23.20;82.90
55777;DHT22;54079;44.540;18.784;2023-06-14T08:12:51;23.20;81.00
55777;DHT22;54079;44.540;18.784;2023-06-14T08:15:18;23.10;81.10
55777;DHT22;54079;44.540;18.784;2023-06-14T08:17:44;23.10;81.90
55777;DHT22;54079;44.540;18.784;2023-06-14T08:20:10;23.10;82.00
55777;DHT22;54079;44.540;18.784;2023-06-14T08:22:37;23.20;82.40
55777;DHT22;54079;44.540;18.784;2023-06-14T08:25:04;23.50;80.70
55777;DHT22;54079;44.540;18.784;2023-06-14T08:27:30;23.50;82.10
55777;DHT22;54079;44.540;18.784;2023-06-14T08:29:56;23.40;81.40
55777;DHT22;54079;44.540;18.784;2023-06-14T08:32:22;23.50;81.30
55777;DHT22;54079;44.540;18.784;2023-06-14T08:34:48;23.60;81.80
55777;DHT22;54079;44.540;18.784;2023-06-14T08:37:14;23.60;78.20
55777;DHT22;54079;44.540;18.784;2023-06-14T08:39:40;23.60;79.90
55777;DHT22;54079;44.540;18.784;2023-06-14T08:42:07;23.40;80.10
55777;DHT22;54079;44.540;18.784;2023-06-14T08:44:34;23.30;79.20
55777;DHT22;54079;44.540;18.784;2023-06-14T08:47:00;23.20;81.00
55777;DHT22;54079;44.540;18.784;2023-06-14T08:49:30;23.20;81.10
55777;DHT22;54079;44.540;18.784;2023-06-14T08:52:00;23.10;80.10
55777;DHT22;54079;44.540;18.784;2023-06-14T08:54:28;22.90;81.20
55777;DHT22;54079;44.540;18.784;2023-06-14T08:56:58;23.20;79.70
55777;DHT22;54079;44.540;18.784;2023-06-14T08:59:28;23.40;79.10
55777;DHT22;54079;44.540;18.784;2023-06-14T09:01:54;23.60;79.90
55777;DHT22;54079;44.540;18.784;2023-06-14T09:04:21;23.90;80.00
55777;DHT22;54079;44.540;18.784;2023-06-14T09:06:56;24.00;78.30
55777;DHT22;54079;44.540;18.784;2023-06-14T09:09:22;23.80;78.00
55777;DHT22;54079;44.540;18.784;2023-06-14T09:11:53;23.40;77.60
55777;DHT22;54079;44.540;18.784;2023-06-14T09:14:19;23.50;78.10
55777;DHT22;54079;44.540;18.784;2023-06-14T09:16:45;23.70;78.80
55777;DHT22;54079;44.540;18.784;2023-06-14T09:19:21;24.00;77.60
55777;DHT22;54079;44.540;18.784;2023-06-14T09:21:49;24.00;77.30
55777;DHT22;54079;44.540;18.784;2023-06-14T09:24:15;24.30;76.50
55777;DHT22;54079;44.540;18.784;2023-06-14T09:26:41;24.30;77.00
55777;DHT22;54079;44.540;18.784;2023-06-14T09:29:07;24.30;76.60
55777;DHT22;54079;44.540;18.784;2023-06-14T09:31:35;24.30;76.60
55777;DHT22;54079;44.540;18.784;2023-06-14T09:34:02;24.10;77.50
55777;DHT22;54079;44.540;18.784;2023-06-14T09:36:31;24.10;76.50
55777;DHT22;54079;44.540;18.784;2023-06-14T09:38:58;24.10;77.20
55777;DHT22;54079;44.540;18.784;2023-06-14T09:41:38;24.60;76.50
55777;DHT22;54079;44.540;18.784;2023-06-14T09:44:07;24.70;76.50
55777;DHT22;54079;44.540;18.784;2023-06-14T09:46:33;24.70;74.40
55777;DHT22;54079;44.540;18.784;2023-06-14T09:49:01;24.70;75.20
55777;DHT22;54079;44.540;18.784;2023-06-14T09:51:28;24.50;75.00
55777;DHT22;54079;44.540;18.784;2023-06-14T09:54:01;24.50;74.50
55777;DHT22;54079;44.540;18.784;2023-06-14T09:56:32;24.40;75.00
55777;DHT22;54079;44.540;18.784;2023-06-14T09:59:04;24.10;75.50
55777;DHT22;54079;44.540;18.784;2023-06-14T10:01:31;24.50;75.00
55777;DHT22;54079;44.540;18.784;2023-06-14T10:04:05;24.30;75.10
55777;DHT22;54079;44.540;18.784;2023-06-14T10:06:35;23.80;76.00
55777;DHT22;54079;44.540;18.784;2023-06-14T10:09:04;23.80;77.20
55777;DHT22;54079;44.540;18.784;2023-06-14T10:11:31;24.00;75.60
55777;DHT22;54079;44.540;18.784;2023-06-14T10:13:58;24.00;75.70
55777;DHT22;54079;44.540;18.784;2023-06-14T10:16:39;23.80;76.00
55777;DHT22;54079;44.540;18.784;2023-06-14T10:22:14;23.80;76.60
55777;DHT22;54079;44.540;18.784;2023-06-14T10:24:43;23.90;78.00
55777;DHT22;54079;44.540;18.784;2023-06-14T10:27:09;23.80;77.10
55777;DHT22;54079;44.540;18.784;2023-06-14T10:32:22;23.50;77.30
55777;DHT22;54079;44.540;18.784;2023-06-14T10:37:23;23.90;76.80
55777;DHT22;54079;44.540;18.784;2023-06-14T10:39:52;24.00;77.60
55777;DHT22;54079;44.540;18.784;2023-06-14T10:42:19;23.90;78.10
55777;DHT22;54079;44.540;18.784;2023-06-14T10:44:53;24.20;77.50
55777;DHT22;54079;44.540;18.784;2023-06-14T10:47:34;23.90;77.80
55777;DHT22;54079;44.540;18.784;2023-06-14T10:50:09;24.20;77.00
55777;DHT22;54079;44.540;18.784;2023-06-14T10:52:41;24.40;77.60
55777;DHT22;54079;44.540;18.784;2023-06-14T10:55:13;24.60;76.50
55777;DHT22;54079;44.540;18.784;2023-06-14T10:57:50;25.00;75.40
55777;DHT22;54079;44.540;18.784;2023-06-14T11:00:28;25.20;76.40
55777;DHT22;54079;44.540;18.784;2023-06-14T11:11:06;25.80;75.30
55777;DHT22;54079;44.540;18.784;2023-06-14T11:13:32;26.60;74.90
55777;DHT22;54079;44.540;18.784;2023-06-14T11:15:59;26.60;74.00
55777;DHT22;54079;44.540;18.784;2023-06-14T11:18:25;26.60;74.80
55777;DHT22;54079;44.540;18.784;2023-06-14T11:20:53;26.70;74.30
55777;DHT22;54079;44.540;18.784;2023-06-14T11:23:19;26.70;74.50
55777;DHT22;54079;44.540;18.784;2023-06-14T11:25:51;26.30;74.70
55777;DHT22;54079;44.540;18.784;2023-06-14T11:28:17;26.40;74.50
55777;DHT22;54079;44.540;18.784;2023-06-14T11:30:45;26.70;74.90
55777;DHT22;54079;44.540;18.784;2023-06-14T11:33:17;26.70;74.30
55777;DHT22;54079;44.540;18.784;2023-06-14T11:35:46;26.40;75.20
55777;DHT22;54079;44.540;18.784;2023-06-14T11:38:12;26.40;75.10
55777;DHT22;54079;44.540;18.784;2023-06-14T11:40:38;26.40;75.00
55777;DHT22;54079;44.540;18.784;2023-06-14T11:43:04;26.40;75.60
55777;DHT22;54079;44.540;18.784;2023-06-14T11:45:31;25.90;76.20
55777;DHT22;54079;44.540;18.784;2023-06-14T11:47:58;26.10;76.10
55777;DHT22;54079;44.540;18.784;2023-06-14T11:50:25;25.90;75.50
55777;DHT22;54079;44.540;18.784;2023-06-14T11:52:59;25.90;75.10
55777;DHT22;54079;44.540;18.784;2023-06-14T11:55:29;25.70;76.10
55777;DHT22;54079;44.540;18.784;2023-06-14T11:57:55;25.70;75.50
55777;DHT22;54079;44.540;18.784;2023-06-14T12:00:25;25.60;77.40
55777;DHT22;54079;44.540;18.784;2023-06-14T12:02:53;26.10;76.00
55777;DHT22;54079;44.540;18.784;2023-06-14T12:05:24;26.40;75.60
55777;DHT22;54079;44.540;18.784;2023-06-14T12:07:57;26.10;76.80
55777;DHT22;54079;44.540;18.784;2023-06-14T12:10:24;26.20;74.40
55777;DHT22;54079;44.540;18.784;2023-06-14T12:12:50;26.30;77.40
55777;DHT22;54079;44.540;18.784;2023-06-14T12:15:16;26.40;76.40
55777;DHT22;54079;44.540;18.784;2023-06-14T12:17:42;26.40;75.80
55777;DHT22;54079;44.540;18.784;2023-06-14T12:20:10;26.00;75.30
55777;DHT22;54079;44.540;18.784;2023-06-14T12:22:37;26.20;75.00
55777;DHT22;54079;44.540;18.784;2023-06-14T12:25:04;26.20;75.20
55777;DHT22;54079;44.540;18.784;2023-06-14T12:27:31;26.60;74.00
55777;DHT22;54079;44.540;18.784;2023-06-14T12:30:01;26.40;77.90
55777;DHT22;54079;44.540;18.784;2023-06-14T12:32:28;25.80;75.00
55777;DHT22;54079;44.540;18.784;2023-06-14T12:34:55;25.60;75.80
55777;DHT22;54079;44.540;18.784;2023-06-14T12:37:21;25.40;76.40
55777;DHT22;54079;44.540;18.784;2023-06-14T12:39:47;25.30;76.10
55777;DHT22;54079;44.540;18.784;2023-06-14T12:42:13;25.40;76.40
55777;DHT22;54079;44.540;18.784;2023-06-14T12:44:40;25.50;76.20
55777;DHT22;54079;44.540;18.784;2023-06-14T12:47:07;25.80;74.40
55777;DHT22;54079;44.540;18.784;2023-06-14T12:49:33;25.60;75.60
55777;DHT22;54079;44.540;18.784;2023-06-14T12:51:59;25.60;77.20
55777;DHT22;54079;44.540;18.784;2023-06-14T12:54:25;25.40;77.50
55777;DHT22;54079;44.540;18.784;2023-06-14T12:56:51;25.60;77.10
55777;DHT22;54079;44.540;18.784;2023-06-14T12:59:18;25.70;76.80
55777;DHT22;54079;44.540;18.784;2023-06-14T13:01:44;25.60;76.00
55777;DHT22;54079;44.540;18.784;2023-06-14T13:04:11;25.40;76.70
55777;DHT22;54079;44.540;18.784;2023-06-14T13:06:37;25.60;77.60
55777;DHT22;54079;44.540;18.784;2023-06-14T13:09:04;25.40;76.40
55777;DHT22;54079;44.540;18.784;2023-06-14T13:11:31;25.40;77.00
55777;DHT22;54079;44.540;18.784;2023-06-14T13:13:57;25.40;78.00
55777;DHT22;54079;44.540;18.784;2023-06-14T13:16:23;25.20;76.70
55777;DHT22;54079;44.540;18.784;2023-06-14T13:18:49;25.40;77.20
55777;DHT22;54079;44.540;18.784;2023-06-14T13:21:15;25.10;78.50
55777;DHT22;54079;44.540;18.784;2023-06-14T13:23:41;24.70;78.60
55777;DHT22;54079;44.540;18.784;2023-06-14T13:26:07;24.90;78.30
55777;DHT22;54079;44.540;18.784;2023-06-14T13:28:32;25.10;79.00
55777;DHT22;54079;44.540;18.784;2023-06-14T13:31:00;25.40;78.90
55777;DHT22;54079;44.540;18.784;2023-06-14T13:33:27;25.50;77.60
55777;DHT22;54079;44.540;18.784;2023-06-14T13:35:53;25.10;77.70
55777;DHT22;54079;44.540;18.784;2023-06-14T13:38:22;25.10;77.50
55777;DHT22;54079;44.540;18.784;2023-06-14T13:40:48;25.30;76.90
55777;DHT22;54079;44.540;18.784;2023-06-14T13:43:14;25.60;77.00
55777;DHT22;54079;44.540;18.784;2023-06-14T13:45:40;25.60;75.00
55777;DHT22;54079;44.540;18.784;2023-06-14T13:48:06;25.30;76.00
55777;DHT22;54079;44.540;18.784;2023-06-14T13:50:32;25.60;76.90
55777;DHT22;54079;44.540;18.784;2023-06-14T13:52:58;25.60;75.80
55777;DHT22;54079;44.540;18.784;2023-06-14T13:55:23;25.50;76.40
55777;DHT22;54079;44.540;18.784;2023-06-14T13:57:49;25.60;76.80
55777;DHT22;54079;44.540;18.784;2023-06-14T14:00:16;25.70;75.90
55777;DHT22;54079;44.540;18.784;2023-06-14T14:02:42;25.60;74.40
55777;DHT22;54079;44.540;18.784;2023-06-14T14:05:09;25.60;76.10
55777;DHT22;54079;44.540;18.784;2023-06-14T14:07:35;25.60;75.80
55777;DHT22;54079;44.540;18.784;2023-06-14T14:10:02;25.30;75.20
55777;DHT22;54079;44.540;18.784;2023-06-14T14:12:28;25.20;75.40
55777;DHT22;54079;44.540;18.784;2023-06-14T14:14:54;25.60;75.60
55777;DHT22;54079;44.540;18.784;2023-06-14T14:17:20;25.60;76.00
55777;DHT22;54079;44.540;18.784;2023-06-14T14:19:46;25.30;75.50
55777;DHT22;54079;44.540;18.784;2023-06-14T14:22:12;25.20;75.00
55777;DHT22;54079;44.540;18.784;2023-06-14T14:24:38;25.20;75.00
55777;DHT22;54079;44.540;18.784;2023-06-14T14:27:04;25.30;75.00
55777;DHT22;54079;44.540;18.784;2023-06-14T14:29:32;25.40;75.00
55777;DHT22;54079;44.540;18.784;2023-06-14T14:31:58;25.40;75.70
55777;DHT22;54079;44.540;18.784;2023-06-14T14:34:27;25.50;75.30
55777;DHT22;54079;44.540;18.784;2023-06-14T14:36:54;25.70;74.60
55777;DHT22;54079;44.540;18.784;2023-06-14T14:39:20;25.50;75.10
55777;DHT22;54079;44.540;18.784;2023-06-14T14:41:46;25.50;74.60
55777;DHT22;54079;44.540;18.784;2023-06-14T14:44:12;25.40;75.90
55777;DHT22;54079;44.540;18.784;2023-06-14T14:46:38;25.20;75.80
55777;DHT22;54079;44.540;18.784;2023-06-14T14:49:04;24.90;75.20
55777;DHT22;54079;44.540;18.784;2023-06-14T14:51:30;24.90;75.20
55777;DHT22;54079;44.540;18.784;2023-06-14T14:53:56;24.70;76.30
55777;DHT22;54079;44.540;18.784;2023-06-14T14:56:22;24.60;75.40
55777;DHT22;54079;44.540;18.784;2023-06-14T14:58:49;24.40;76.00
55777;DHT22;54079;44.540;18.784;2023-06-14T15:01:16;24.60;75.70
55777;DHT22;54079;44.540;18.784;2023-06-14T15:03:41;24.70;74.90
55777;DHT22;54079;44.540;18.784;2023-06-14T15:06:07;24.90;74.80
55777;DHT22;54079;44.540;18.784;2023-06-14T15:08:33;25.20;75.30
55777;DHT22;54079;44.540;18.784;2023-06-14T15:10:59;25.40;74.90
55777;DHT22;54079;44.540;18.784;2023-06-14T15:13:26;25.60;74.20
55777;DHT22;54079;44.540;18.784;2023-06-14T15:15:52;26.00;74.50
55777;DHT22;54079;44.540;18.784;2023-06-14T15:18:18;25.50;73.90
55777;DHT22;54079;44.540;18.784;2023-06-14T15:20:46;25.50;74.30
55777;DHT22;54079;44.540;18.784;2023-06-14T15:23:12;25.70;74.30
55777;DHT22;54079;44.540;18.784;2023-06-14T15:25:40;25.90;74.50
55777;DHT22;54079;44.540;18.784;2023-06-14T15:28:06;25.80;73.40
55777;DHT22;54079;44.540;18.784;2023-06-14T15:30:32;25.60;73.80
55777;DHT22;54079;44.540;18.784;2023-06-14T15:32:58;25.50;74.70